Time;durP1;ratioP1;P1;durP2;ratioP2;P2;SDS_P1;SDS_P2;PMS_P1;PMS_P2;Temp;Humidity;BMP_temperature;BMP_pressure;BME280_temperature;BME280_humidity;BME280_pressure;Samples;Min_cycle;Max_cycle;Signal;HPM_P1;HPM_P2
2020/12/30 00:00:11;;;;;;;8.07;3.95;;;2.90;71.10;;;;;;5002876;28;20034;-69
2020/12/30 00:02:37;;;;;;;8.75;4.22;;;2.80;71.20;;;;;;5004333;28;20052;-69
2020/12/30 00:05:07;;;;;;;8.57;3.90;;;2.90;71.00;;;;;;5003130;28;20049;-69
2020/12/30 00:07:33;;;;;;;7.93;3.78;;;2.90;72.10;;;;;;5004559;28;20056;-69
2020/12/30 00:09:59;;;;;;;6.82;4.00;;;2.80;72.00;;;;;;4973066;28;20037;-69
2020/12/30 00:12:28;;;;;;;6.18;3.75;;;2.80;72.10;;;;;;5002171;28;20174;-69
2020/12/30 00:14:54;;;;;;;6.70;3.63;;;2.80;72.60;;;;;;5002697;28;20065;-68
2020/12/30 00:17:20;;;;;;;7.18;3.88;;;2.80;72.20;;;;;;5002735;28;20037;-69
2020/12/30 00:19:45;;;;;;;7.72;3.92;;;2.80;71.40;;;;;;4993658;28;20321;-69
2020/12/30 00:22:11;;;;;;;6.35;4.25;;;2.60;71.70;;;;;;5005883;28;20038;-69
2020/12/30 00:24:36;;;;;;;6.80;3.70;;;2.60;71.70;;;;;;5002870;28;20084;-69
2020/12/30 00:27:03;;;;;;;6.35;3.97;;;2.50;71.90;;;;;;4986295;28;20329;-69
2020/12/30 00:29:29;;;;;;;8.18;4.05;;;2.50;72.50;;;;;;5002496;28;20034;-69
2020/12/30 00:31:54;;;;;;;8.90;4.00;;;2.40;72.00;;;;;;5003168;28;20112;-69
2020/12/30 00:34:20;;;;;;;5.03;3.03;;;2.40;72.00;;;;;;5005593;28;20329;-68
2020/12/30 00:36:45;;;;;;;8.00;3.78;;;2.40;72.50;;;;;;5002626;28;20034;-69
2020/12/30 00:39:11;;;;;;;6.20;3.20;;;2.30;72.40;;;;;;4986361;28;20105;-69
2020/12/30 00:41:36;;;;;;;5.82;3.13;;;2.30;72.20;;;;;;5002204;28;20039;-69
2020/12/30 00:44:02;;;;;;;5.82;3.17;;;2.30;72.20;;;;;;5003463;28;20034;-69
2020/12/30 00:46:28;;;;;;;6.30;3.70;;;2.20;72.70;;;;;;5003930;28;20077;-69
2020/12/30 00:48:53;;;;;;;4.45;2.60;;;2.30;72.30;;;;;;5005258;28;20094;-69
2020/12/30 00:51:19;;;;;;;5.85;3.20;;;2.20;72.50;;;;;;5003269;28;20100;-69
2020/12/30 00:53:44;;;;;;;4.55;2.92;;;2.20;72.20;;;;;;5002151;28;20100;-68
2020/12/30 00:56:13;;;;;;;5.15;2.95;;;2.20;72.30;;;;;;5003304;28;20053;-69
2020/12/30 00:58:39;;;;;;;6.00;3.30;;;2.10;72.50;;;;;;5002890;28;20042;-69
2020/12/30 01:01:05;;;;;;;6.70;2.95;;;2.00;72.60;;;;;;5005020;28;20049;-69
2020/12/30 01:03:32;;;;;;;6.90;3.03;;;2.20;72.60;;;;;;4986001;28;20092;-68
2020/12/30 01:05:57;;;;;;;6.30;3.00;;;2.20;72.60;;;;;;5002016;28;20246;-68
2020/12/30 01:08:23;;;;;;;5.15;2.70;;;2.20;72.70;;;;;;5001699;28;20034;-69
2020/12/30 01:10:49;;;;;;;7.45;3.10;;;2.10;72.30;;;;;;5002631;28;20041;-69
2020/12/30 01:13:14;;;;;;;6.45;3.00;;;2.10;72.30;;;;;;5004698;28;20038;-69
2020/12/30 01:15:40;;;;;;;5.03;2.95;;;2.00;72.60;;;;;;5001801;28;20397;-69
2020/12/30 01:18:06;;;;;;;5.28;2.90;;;1.90;72.70;;;;;;5001558;28;20045;-68
2020/12/30 01:20:31;;;;;;;5.78;2.90;;;2.00;72.90;;;;;;5002646;28;20333;-68
2020/12/30 01:22:57;;;;;;;6.75;3.17;;;2.00;72.70;;;;;;5002479;28;20049;-69
2020/12/30 01:25:22;;;;;;;6.43;3.95;;;1.90;72.60;;;;;;5002928;28;20335;-70
2020/12/30 01:27:48;;;;;;;7.10;3.22;;;1.90;72.40;;;;;;5004465;28;20321;-68
2020/12/30 01:30:13;;;;;;;4.72;2.95;;;1.90;72.80;;;;;;5002685;28;20109;-68
2020/12/30 01:32:39;;;;;;;5.80;3.30;;;1.80;72.60;;;;;;5001568;28;20042;-68
2020/12/30 01:35:04;;;;;;;5.20;2.85;;;1.70;73.10;;;;;;5002057;28;20038;-69
2020/12/30 01:37:30;;;;;;;6.05;2.95;;;1.80;73.30;;;;;;5003594;28;20175;-69
2020/12/30 01:39:55;;;;;;;5.00;2.80;;;1.80;73.20;;;;;;5004347;28;20040;-69
2020/12/30 01:42:21;;;;;;;4.55;2.60;;;1.70;73.00;;;;;;5002202;28;20388;-68
2020/12/30 01:44:46;;;;;;;8.82;2.65;;;1.70;73.30;;;;;;5001323;28;20034;-69
2020/12/30 01:47:12;;;;;;;6.95;2.85;;;1.70;73.60;;;;;;5000996;28;20045;-69
2020/12/30 01:49:38;;;;;;;4.70;2.72;;;1.70;73.70;;;;;;5002018;28;20041;-69
2020/12/30 01:52:04;;;;;;;5.57;2.90;;;1.70;73.30;;;;;;5004741;28;20034;-69
2020/12/30 01:54:29;;;;;;;4.68;2.80;;;1.60;73.60;;;;;;5002189;28;20042;-69
2020/12/30 01:56:55;;;;;;;5.05;2.50;;;1.70;74.10;;;;;;5000841;28;20115;-69
2020/12/30 01:59:20;;;;;;;3.92;2.35;;;1.70;74.00;;;;;;5000906;28;20034;-68
2020/12/30 02:02:04;;;;;;;4.25;2.25;;;1.70;73.90;;;;;;5000557;28;20062;-69
2020/12/30 02:04:51;;;;;;;4.63;2.38;;;1.60;73.70;;;;;;4986089;28;20019;-68
2020/12/30 02:07:17;;;;;;;4.45;2.40;;;1.60;73.40;;;;;;5003300;28;20209;-68
2020/12/30 02:09:43;;;;;;;4.53;2.63;;;1.70;73.50;;;;;;5001035;28;20049;-69
2020/12/30 02:12:09;;;;;;;4.20;2.35;;;1.70;73.80;;;;;;5000578;28;20034;-68
2020/12/30 02:14:35;;;;;;;4.85;2.35;;;1.60;73.90;;;;;;5001698;28;20206;-68
2020/12/30 02:17:00;;;;;;;4.30;2.47;;;1.60;74.30;;;;;;5001970;28;20030;-68
2020/12/30 02:19:26;;;;;;;4.50;2.15;;;1.70;74.20;;;;;;5002092;28;20030;-69
2020/12/30 02:21:54;;;;;;;4.40;2.50;;;1.80;74.40;;;;;;5002230;28;20105;-68
2020/12/30 02:24:30;;;;;;;4.47;2.20;;;1.80;74.30;;;;;;5000718;28;20039;-68
2020/12/30 02:26:56;;;;;;;4.53;2.25;;;1.80;74.10;;;;;;5000530;28;20034;-69
2020/12/30 02:29:21;;;;;;;5.20;2.25;;;1.80;74.60;;;;;;5001500;28;20097;-69
2020/12/30 02:31:47;;;;;;;3.63;2.40;;;1.80;74.30;;;;;;5001228;28;20030;-69
2020/12/30 02:34:13;;;;;;;4.05;2.30;;;1.70;74.40;;;;;;5003829;28;20049;-69
2020/12/30 02:36:38;;;;;;;5.30;2.38;;;1.90;74.80;;;;;;4984407;28;20042;-69
2020/12/30 02:39:04;;;;;;;3.22;1.80;;;2.00;74.50;;;;;;4984462;28;20099;-68
2020/12/30 02:41:29;;;;;;;3.90;2.13;;;1.90;74.40;;;;;;5000325;28;20038;-68
2020/12/30 02:43:55;;;;;;;4.68;2.20;;;2.00;74.70;;;;;;5000112;28;20033;-68
2020/12/30 02:46:20;;;;;;;4.53;2.45;;;2.00;74.20;;;;;;5006417;28;20031;-69
2020/12/30 02:48:46;;;;;;;3.70;2.22;;;2.10;74.10;;;;;;5005818;28;20096;-68
2020/12/30 02:51:11;;;;;;;4.35;2.22;;;2.20;74.30;;;;;;5004442;28;20198;-68
2020/12/30 02:53:37;;;;;;;4.40;2.25;;;2.10;74.00;;;;;;5005367;28;20035;-68
2020/12/30 02:56:03;;;;;;;4.57;2.13;;;2.20;74.10;;;;;;5004094;28;20045;-68
2020/12/30 02:58:28;;;;;;;4.40;2.00;;;2.20;73.90;;;;;;5005972;28;20214;-69
2020/12/30 03:00:54;;;;;;;3.47;2.13;;;2.20;74.50;;;;;;5006256;28;20061;-68
2020/12/30 03:03:19;;;;;;;5.35;2.38;;;2.20;74.20;;;;;;5004132;28;20277;-69
2020/12/30 03:05:45;;;;;;;3.92;2.00;;;2.30;74.10;;;;;;5005350;28;20102;-69
2020/12/30 03:08:10;;;;;;;3.35;2.10;;;2.30;73.80;;;;;;5003830;28;20225;-69
2020/12/30 03:10:36;;;;;;;4.38;2.10;;;2.40;73.70;;;;;;5003656;28;20045;-69
2020/12/30 03:13:01;;;;;;;3.35;2.00;;;2.40;74.10;;;;;;5008118;28;20033;-68
2020/12/30 03:15:27;;;;;;;3.08;1.95;;;2.30;74.30;;;;;;4987244;28;20264;-69
2020/12/30 03:17:52;;;;;;;5.22;2.28;;;2.30;74.40;;;;;;5003775;28;20061;-69
2020/12/30 03:20:18;;;;;;;4.75;2.15;;;2.40;74.20;;;;;;5005005;28;20042;-69
2020/12/30 03:22:43;;;;;;;3.58;2.03;;;2.40;74.50;;;;;;5003559;28;20043;-69
2020/12/30 03:25:09;;;;;;;4.22;2.25;;;2.40;74.60;;;;;;5007985;28;20368;-69
2020/12/30 03:27:35;;;;;;;6.13;2.15;;;2.40;74.60;;;;;;5004117;28;20097;-69
2020/12/30 03:30:00;;;;;;;4.25;2.00;;;2.40;74.00;;;;;;5003754;28;20089;-69
2020/12/30 03:32:27;;;;;;;5.10;2.00;;;2.50;73.90;;;;;;5003687;28;20049;-69
2020/12/30 03:34:53;;;;;;;4.97;2.10;;;2.60;74.10;;;;;;5003500;28;20062;-68
2020/12/30 03:37:18;;;;;;;4.25;1.92;;;2.60;73.60;;;;;;5007165;28;20058;-69
2020/12/30 03:39:44;;;;;;;3.17;1.75;;;2.60;73.50;;;;;;5004697;28;20049;-69
2020/12/30 03:42:09;;;;;;;5.50;1.90;;;2.60;73.50;;;;;;4986972;28;20050;-69
2020/12/30 03:44:35;;;;;;;3.70;1.70;;;2.60;73.10;;;;;;5004535;28;20034;-69
2020/12/30 03:47:01;;;;;;;5.07;1.90;;;2.60;73.20;;;;;;5004491;28;20030;-68
2020/12/30 03:49:27;;;;;;;3.50;1.55;;;2.60;73.40;;;;;;4988713;28;20277;-69
2020/12/30 03:51:53;;;;;;;9.60;3.03;;;2.60;73.40;;;;;;5004990;28;20053;-69
2020/12/30 03:54:18;;;;;;;2.85;1.58;;;2.70;73.80;;;;;;5004519;28;20081;-69
2020/12/30 03:56:44;;;;;;;4.05;1.80;;;2.70;73.60;;;;;;5003035;28;20089;-69
2020/12/30 03:59:09;;;;;;;4.78;1.70;;;2.60;73.40;;;;;;5002808;28;20038;-68
2020/12/30 04:01:35;;;;;;;3.63;1.92;;;2.60;73.60;;;;;;4986667;28;20090;-69
2020/12/30 04:04:01;;;;;;;2.88;1.67;;;2.70;73.50;;;;;;5007289;28;20026;-68
2020/12/30 04:06:26;;;;;;;3.35;1.83;;;2.80;73.40;;;;;;5002878;28;20325;-69
2020/12/30 04:08:52;;;;;;;3.33;1.50;;;2.80;74.10;;;;;;5003001;28;20038;-69
2020/12/30 04:11:17;;;;;;;3.58;1.70;;;2.90;73.00;;;;;;5003764;28;20042;-69
2020/12/30 04:13:43;;;;;;;4.22;1.83;;;2.80;73.20;;;;;;5002388;28;20034;-69
2020/12/30 04:16:08;;;;;;;3.20;1.80;;;2.80;73.40;;;;;;5007081;28;20213;-69
2020/12/30 04:18:34;;;;;;;2.80;1.55;;;2.90;73.30;;;;;;5003030;28;20034;-69
2020/12/30 04:20:59;;;;;;;4.15;1.55;;;2.90;73.30;;;;;;5004041;28;20046;-68
2020/12/30 04:23:25;;;;;;;4.60;1.60;;;2.90;73.80;;;;;;5003757;28;20054;-68
2020/12/30 04:25:50;;;;;;;3.05;1.60;;;2.90;73.60;;;;;;5002500;28;20034;-69
2020/12/30 04:28:16;;;;;;;4.13;1.40;;;2.90;73.40;;;;;;5005618;28;20026;-69
2020/12/30 04:30:42;;;;;;;4.20;1.70;;;2.90;73.70;;;;;;4986671;28;20085;-69
2020/12/30 04:33:11;;;;;;;3.33;1.88;;;3.00;73.00;;;;;;4986580;28;20042;-68
2020/12/30 04:35:36;;;;;;;3.00;1.70;;;2.90;73.80;;;;;;5003689;28;20042;-68
2020/12/30 04:38:04;;;;;;;3.80;2.00;;;2.90;73.70;;;;;;5002348;28;20034;-68
2020/12/30 04:40:29;;;;;;;4.82;1.92;;;2.90;74.30;;;;;;5003841;28;20030;-69
2020/12/30 04:42:55;;;;;;;3.13;1.63;;;2.90;73.90;;;;;;5005401;28;20049;-68
2020/12/30 04:45:21;;;;;;;3.97;1.67;;;2.90;73.80;;;;;;5002590;28;20042;-68
2020/12/30 04:47:46;;;;;;;2.13;1.40;;;2.90;74.00;;;;;;5002119;28;20101;-68
2020/12/30 04:50:12;;;;;;;4.35;1.73;;;2.90;73.60;;;;;;4985829;28;20034;-69
2020/12/30 04:52:37;;;;;;;3.92;1.98;;;2.90;73.30;;;;;;5002175;28;20058;-69
2020/12/30 04:55:03;;;;;;;3.90;1.80;;;2.90;73.50;;;;;;5005747;28;20026;-69
2020/12/30 04:58:03;;;;;;;4.18;1.65;;;2.90;73.70;;;;;;5001938;28;20065;-68
2020/12/30 05:00:29;;;;;;;3.45;1.83;;;2.90;73.90;;;;;;5001762;28;20042;-68
2020/12/30 05:02:54;;;;;;;2.97;1.70;;;2.90;73.90;;;;;;5001847;28;20058;-69
2020/12/30 05:05:20;;;;;;;4.32;1.52;;;2.90;74.20;;;;;;4985547;28;20062;-69
2020/12/30 05:07:46;;;;;;;4.25;2.10;;;2.90;73.80;;;;;;5001250;28;20049;-68
2020/12/30 05:10:14;;;;;;;4.70;1.83;;;2.90;73.90;;;;;;4988809;28;20022;-69
2020/12/30 05:12:40;;;;;;;2.38;1.50;;;2.90;73.80;;;;;;5001902;28;20141;-68
2020/12/30 05:15:06;;;;;;;3.25;1.85;;;2.90;73.90;;;;;;5002879;28;20042;-69
2020/12/30 05:17:33;;;;;;;4.45;1.80;;;2.90;74.00;;;;;;5001737;28;20038;-69
2020/12/30 05:19:58;;;;;;;4.50;2.25;;;3.00;73.50;;;;;;5002366;28;20076;-68
2020/12/30 05:22:24;;;;;;;3.65;1.75;;;3.00;73.70;;;;;;5004358;28;20062;-69
2020/12/30 05:24:49;;;;;;;5.28;1.75;;;3.00;74.00;;;;;;5004557;28;20232;-69
2020/12/30 05:27:15;;;;;;;3.22;1.80;;;3.10;73.80;;;;;;5001507;28;20265;-69
2020/12/30 05:29:45;;;;;;;4.25;1.88;;;3.10;73.50;;;;;;5001353;28;20098;-69
2020/12/30 05:32:11;;;;;;;3.08;1.80;;;3.10;73.80;;;;;;5001244;28;20058;-69
2020/12/30 05:34:36;;;;;;;2.58;1.50;;;3.10;74.10;;;;;;5001065;28;20261;-69
2020/12/30 05:37:02;;;;;;;3.83;1.60;;;3.20;74.10;;;;;;5004699;28;20034;-68
2020/12/30 05:39:32;;;;;;;3.42;1.90;;;3.20;74.20;;;;;;5001287;28;20094;-69
2020/12/30 05:42:28;;;;;;;2.85;1.80;;;3.20;74.00;;;;;;4985134;28;20038;-69
2020/12/30 05:44:56;;;;;;;4.15;1.88;;;3.30;73.70;;;;;;4984630;28;20037;-68
2020/12/30 05:47:26;;;;;;;3.58;2.00;;;3.20;73.60;;;;;;5001163;28;20085;-69
2020/12/30 05:49:53;;;;;;;4.15;1.73;;;3.20;73.70;;;;;;5001003;28;20049;-68
2020/12/30 05:52:21;;;;;;;3.78;1.98;;;3.20;73.70;;;;;;5004161;28;20034;-69
2020/12/30 05:54:51;;;;;;;2.83;1.75;;;3.20;73.50;;;;;;5001163;28;20039;-69
2020/12/30 05:57:28;;;;;;;4.82;1.90;;;3.10;73.70;;;;;;5000858;28;20388;-68
2020/12/30 05:59:55;;;;;;;3.35;1.75;;;3.10;73.60;;;;;;4999082;28;20042;-68
2020/12/30 06:02:22;;;;;;;5.13;2.10;;;3.10;73.80;;;;;;5000687;28;20049;-68
2020/12/30 06:04:50;;;;;;;4.78;2.30;;;3.10;73.90;;;;;;5000699;28;20062;-68
2020/12/30 06:07:16;;;;;;;3.92;2.28;;;3.10;73.80;;;;;;5003980;28;20091;-70
2020/12/30 06:09:41;;;;;;;4.03;2.20;;;3.20;74.10;;;;;;5001071;28;20118;-68
2020/12/30 06:12:07;;;;;;;4.38;2.15;;;3.20;74.20;;;;;;5000560;28;20054;-68
2020/12/30 06:14:32;;;;;;;4.63;2.20;;;3.20;73.80;;;;;;5000749;28;20053;-68
2020/12/30 06:17:00;;;;;;;3.85;2.30;;;3.20;73.80;;;;;;4984400;28;20317;-68
2020/12/30 06:19:27;;;;;;;3.63;2.20;;;3.30;73.90;;;;;;5002693;28;20098;-67
2020/12/30 06:21:52;;;;;;;4.20;2.20;;;3.30;72.80;;;;;;5002046;28;20053;-69
2020/12/30 06:24:18;;;;;;;4.15;2.40;;;3.30;72.70;;;;;;5000517;28;20213;-63
2020/12/30 06:26:43;;;;;;;4.18;2.20;;;3.30;72.30;;;;;;5001980;28;20037;-63
2020/12/30 06:29:13;;;;;;;3.42;1.90;;;3.30;71.90;;;;;;5001819;28;20318;-62
2020/12/30 06:31:43;;;;;;;3.92;2.20;;;3.30;72.20;;;;;;5001879;28;20321;-63
2020/12/30 06:34:09;;;;;;;6.07;2.50;;;3.30;71.70;;;;;;5020162;28;20026;-63
2020/12/30 06:36:35;;;;;;;5.75;2.40;;;3.30;71.30;;;;;;5000862;28;20053;-62
2020/12/30 06:39:10;;;;;;;12.95;2.72;;;3.30;71.80;;;;;;5001782;28;20329;-63
2020/12/30 06:41:54;;;;;;;14.95;2.42;;;3.20;72.70;;;;;;5000777;28;20038;-62
2020/12/30 06:44:39;;;;;;;10.98;2.08;;;3.20;72.40;;;;;;5001422;28;20371;-63
2020/12/30 06:47:06;;;;;;;22.75;2.70;;;3.20;72.20;;;;;;5001375;28;20026;-62
2020/12/30 06:49:32;;;;;;;28.35;3.13;;;3.20;71.80;;;;;;5002847;28;20034;-63
2020/12/30 06:51:57;;;;;;;8.75;2.40;;;3.20;72.30;;;;;;5002841;28;20034;-62
2020/12/30 06:54:46;;;;;;;4.75;2.13;;;3.20;72.40;;;;;;5001677;28;20351;-62
2020/12/30 06:57:38;;;;;;;17.17;2.55;;;3.10;73.10;;;;;;5000424;28;20042;-62
2020/12/30 07:00:31;;;;;;;23.70;3.25;;;3.20;72.80;;;;;;5000599;28;20049;-62
2020/12/30 07:03:18;;;;;;;9.35;2.42;;;3.10;72.90;;;;;;5001651;28;20041;-63
2020/12/30 07:05:44;;;;;;;10.50;2.40;;;3.10;72.30;;;;;;5001024;28;20046;-62
2020/12/30 07:08:10;;;;;;;4.63;2.25;;;3.10;72.90;;;;;;5000109;28;20068;-62
2020/12/30 07:10:45;;;;;;;6.07;2.30;;;3.10;72.80;;;;;;5000089;28;20038;-63
2020/12/30 07:13:40;;;;;;;4.25;2.22;;;3.10;72.80;;;;;;5002953;28;20105;-62
2020/12/30 07:16:28;;;;;;;4.75;2.58;;;3.10;72.80;;;;;;5000594;28;20045;-63
2020/12/30 07:18:54;;;;;;;6.35;2.53;;;3.20;72.70;;;;;;5000852;28;20114;-62
2020/12/30 07:21:20;;;;;;;4.07;2.17;;;3.30;72.20;;;;;;5000340;28;20042;-62
2020/12/30 07:23:45;;;;;;;4.22;2.20;;;3.30;72.00;;;;;;5000186;28;20038;-62
2020/12/30 07:26:18;;;;;;;6.00;2.28;;;3.30;71.00;;;;;;5000007;28;20042;-63
2020/12/30 07:28:44;;;;;;;4.68;2.35;;;3.40;70.70;;;;;;5000337;28;20058;-62
2020/12/30 07:31:10;;;;;;;4.60;2.70;;;3.40;71.00;;;;;;5004759;28;20042;-62
2020/12/30 07:33:37;;;;;;;3.75;2.40;;;3.40;70.50;;;;;;5005192;28;20042;-63
2020/12/30 07:36:06;;;;;;;3.95;2.20;;;3.40;70.80;;;;;;5003319;28;20114;-63
2020/12/30 07:38:35;;;;;;;4.60;2.30;;;3.40;70.90;;;;;;5003428;28;20034;-62
2020/12/30 07:41:05;;;;;;;4.20;2.60;;;3.50;70.80;;;;;;5004841;28;20113;-63
2020/12/30 07:43:44;;;;;;;4.95;2.40;;;3.50;69.80;;;;;;5006233;28;20062;-62
2020/12/30 07:46:17;;;;;;;5.15;2.00;;;3.50;70.40;;;;;;5005594;28;20045;-61
2020/12/30 07:48:42;;;;;;;4.20;2.40;;;3.60;70.10;;;;;;5004954;28;20218;-62
2020/12/30 07:51:08;;;;;;;4.25;2.22;;;3.90;69.10;;;;;;5004733;28;20035;-62
2020/12/30 07:53:34;;;;;;;4.00;2.13;;;3.80;70.20;;;;;;5004414;28;20367;-62
2020/12/30 07:55:59;;;;;;;4.88;2.45;;;3.90;69.40;;;;;;5003753;28;20041;-62
2020/12/30 07:58:25;;;;;;;4.20;1.85;;;3.90;70.00;;;;;;5005820;28;20037;-61
2020/12/30 08:00:52;;;;;;;5.00;2.05;;;3.90;68.90;;;;;;5004815;28;20042;-62
2020/12/30 08:03:17;;;;;;;4.43;2.20;;;3.90;68.60;;;;;;5003073;28;20053;-62
2020/12/30 08:05:44;;;;;;;3.92;2.17;;;3.90;68.30;;;;;;5003031;28;20105;-62
2020/12/30 08:08:09;;;;;;;4.45;2.00;;;3.90;68.80;;;;;;4987357;28;20049;-62
2020/12/30 08:10:35;;;;;;;3.10;1.88;;;3.90;68.70;;;;;;5002485;28;20034;-63
2020/12/30 08:13:08;;;;;;;3.70;2.58;;;4.00;68.60;;;;;;5006604;28;20026;-62
2020/12/30 08:15:33;;;;;;;4.28;2.10;;;4.00;68.90;;;;;;5004084;28;20046;-62
2020/12/30 08:18:00;;;;;;;4.03;2.03;;;4.00;68.50;;;;;;5003805;28;20112;-63
2020/12/30 08:20:25;;;;;;;4.82;2.15;;;4.00;68.70;;;;;;5002794;28;20062;-62
2020/12/30 08:22:57;;;;;;;3.97;2.00;;;4.10;68.40;;;;;;5003609;28;20042;-62
2020/12/30 08:25:23;;;;;;;3.75;1.77;;;4.20;68.20;;;;;;5005847;28;20308;-63
2020/12/30 08:27:49;;;;;;;5.90;1.95;;;4.20;67.20;;;;;;5005441;28;20062;-63
2020/12/30 08:30:14;;;;;;;3.55;1.90;;;4.20;67.60;;;;;;4986753;28;20038;-62
2020/12/30 08:32:59;;;;;;;3.15;2.00;;;4.20;67.80;;;;;;5002571;28;20041;-62
2020/12/30 08:35:31;;;;;;;2.75;1.92;;;4.20;67.80;;;;;;5002329;28;20279;-62
2020/12/30 08:38:15;;;;;;;3.47;1.90;;;4.20;68.60;;;;;;5002300;28;20041;-62
2020/12/30 08:40:41;;;;;;;3.47;2.00;;;4.20;67.80;;;;;;5001373;28;20061;-62
2020/12/30 08:43:33;;;;;;;4.38;2.10;;;4.20;67.80;;;;;;5004291;28;20038;-61
2020/12/30 08:46:06;;;;;;;3.45;2.00;;;4.20;68.20;;;;;;5002724;28;20034;-62
2020/12/30 08:48:34;;;;;;;5.43;1.92;;;4.30;67.90;;;;;;5003704;28;20054;-61
2020/12/30 08:51:00;;;;;;;3.70;1.95;;;4.30;69.80;;;;;;5003224;28;20060;-61
2020/12/30 08:53:38;;;;;;;4.53;2.05;;;4.40;68.10;;;;;;4985899;28;20034;-63
2020/12/30 08:56:06;;;;;;;3.63;1.70;;;4.40;67.40;;;;;;5003068;28;20045;-62
2020/12/30 08:58:32;;;;;;;4.68;1.88;;;4.40;67.30;;;;;;5003463;28;20031;-62
2020/12/30 09:00:58;;;;;;;3.80;1.90;;;4.30;67.10;;;;;;5005115;28;20054;-62
2020/12/30 09:03:28;;;;;;;3.33;2.08;;;4.30;67.30;;;;;;5002766;28;20368;-67
2020/12/30 09:05:57;;;;;;;4.93;2.10;;;4.40;67.80;;;;;;5001584;28;20049;-68
2020/12/30 09:08:25;;;;;;;3.20;1.87;;;4.40;67.80;;;;;;5001802;28;20109;-67
2020/12/30 09:10:51;;;;;;;2.95;1.85;;;4.40;68.30;;;;;;5001117;28;20052;-67
2020/12/30 09:13:21;;;;;;;4.50;2.67;;;4.40;68.60;;;;;;5004924;28;20026;-68
2020/12/30 09:15:54;;;;;;;5.15;2.13;;;4.50;67.90;;;;;;5001396;28;20066;-67
2020/12/30 09:18:19;;;;;;;2.92;1.83;;;4.50;67.40;;;;;;4986261;28;20066;-71
2020/12/30 09:20:45;;;;;;;3.05;1.75;;;4.40;68.40;;;;;;4984969;28;20042;-67
2020/12/30 09:23:10;;;;;;;5.05;2.20;;;4.50;68.10;;;;;;5001370;28;20092;-68
2020/12/30 09:25:38;;;;;;;4.45;2.17;;;4.60;69.30;;;;;;5002807;28;20042;-68
2020/12/30 09:28:17;;;;;;;3.65;2.00;;;4.60;68.10;;;;;;5004645;28;20031;-68
2020/12/30 09:30:43;;;;;;;4.38;2.00;;;4.70;67.50;;;;;;5001681;28;20112;-68
2020/12/30 09:33:13;;;;;;;3.70;2.00;;;4.90;66.30;;;;;;5001219;28;20046;-68
2020/12/30 09:35:39;;;;;;;4.67;2.00;;;4.90;66.10;;;;;;5001091;28;20098;-67
2020/12/30 09:38:04;;;;;;;5.43;2.17;;;5.00;65.80;;;;;;5000981;28;20213;-67
2020/12/30 09:40:30;;;;;;;2.53;1.63;;;5.20;65.00;;;;;;5004239;28;20249;-67
2020/12/30 09:43:09;;;;;;;3.20;1.60;;;5.40;66.10;;;;;;4986748;28;20034;-67
2020/12/30 09:45:35;;;;;;;3.63;1.80;;;5.50;64.10;;;;;;5001460;28;20221;-67
2020/12/30 09:48:09;;;;;;;3.00;1.40;;;5.40;63.90;;;;;;5001886;28;20061;-67
2020/12/30 09:50:34;;;;;;;3.38;2.10;;;5.50;63.20;;;;;;5001118;28;20042;-66
2020/12/30 09:53:00;;;;;;;2.75;1.60;;;5.50;62.80;;;;;;4984826;28;20191;-66
2020/12/30 09:55:25;;;;;;;4.55;2.15;;;5.60;62.90;;;;;;5002233;28;20084;-66
2020/12/30 09:57:51;;;;;;;8.90;2.63;;;5.70;63.40;;;;;;5003976;28;20041;-67
2020/12/30 10:00:17;;;;;;;6.78;2.20;;;5.70;63.00;;;;;;5002307;28;20030;-65
2020/12/30 10:02:42;;;;;;;2.63;1.52;;;5.60;63.00;;;;;;5002187;28;20038;-64
2020/12/30 10:05:07;;;;;;;3.72;1.73;;;5.50;62.60;;;;;;5002082;28;20045;-65
2020/12/30 10:07:33;;;;;;;4.93;1.30;;;5.60;62.80;;;;;;5002121;28;20106;-65
2020/12/30 10:09:59;;;;;;;3.50;1.70;;;5.50;63.00;;;;;;5003851;28;20233;-65
2020/12/30 10:12:24;;;;;;;4.75;1.70;;;5.60;62.70;;;;;;5001735;28;20109;-65
2020/12/30 10:14:50;;;;;;;7.00;2.10;;;5.60;63.60;;;;;;5001665;28;20065;-65
2020/12/30 10:17:16;;;;;;;5.85;1.80;;;5.60;63.20;;;;;;5000738;28;20034;-65
2020/12/30 10:19:41;;;;;;;5.00;2.10;;;5.60;63.50;;;;;;5000615;28;20122;-64
2020/12/30 10:22:08;;;;;;;4.25;1.98;;;5.70;63.10;;;;;;5004151;28;20041;-65
2020/12/30 10:24:34;;;;;;;3.97;1.75;;;5.70;63.20;;;;;;5000655;28;20093;-65
2020/12/30 10:26:59;;;;;;;3.97;1.80;;;5.90;62.60;;;;;;5000683;28;20344;-65
2020/12/30 10:29:28;;;;;;;5.90;2.00;;;6.10;63.80;;;;;;5000796;28;20045;-65
2020/12/30 10:31:57;;;;;;;5.65;1.80;;;6.30;62.70;;;;;;4984519;28;20038;-65
2020/12/30 10:34:23;;;;;;;3.03;1.58;;;6.40;61.50;;;;;;5001773;28;20090;-66
2020/12/30 10:36:48;;;;;;;3.25;1.63;;;6.60;61.20;;;;;;5002323;28;20037;-65
2020/12/30 10:39:14;;;;;;;3.45;1.95;;;6.60;59.80;;;;;;5001530;28;20349;-65
2020/12/30 10:41:39;;;;;;;2.60;1.60;;;6.80;59.60;;;;;;5001474;28;20077;-65
2020/12/30 10:44:05;;;;;;;2.72;1.80;;;6.80;59.00;;;;;;5001195;28;20038;-65
2020/12/30 10:46:30;;;;;;;3.10;1.73;;;6.70;58.40;;;;;;5002933;28;20030;-65
2020/12/30 10:48:56;;;;;;;3.10;1.70;;;6.70;59.20;;;;;;4985832;28;20035;-65
2020/12/30 10:51:22;;;;;;;6.18;1.73;;;6.60;59.50;;;;;;5000205;28;20042;-64
2020/12/30 10:53:47;;;;;;;6.95;2.20;;;6.70;60.70;;;;;;5001479;28;20031;-65
2020/12/30 10:56:15;;;;;;;3.05;1.60;;;6.60;58.70;;;;;;5001276;28;20034;-65
2020/12/30 10:58:41;;;;;;;4.88;1.83;;;6.70;59.50;;;;;;5000138;28;20262;-65
2020/12/30 11:01:10;;;;;;;3.08;1.58;;;6.60;59.60;;;;;;5003619;28;20033;-65
2020/12/30 11:03:36;;;;;;;3.97;1.67;;;6.70;59.90;;;;;;5001573;28;20046;-65
2020/12/30 11:06:02;;;;;;;6.50;1.90;;;6.60;59.50;;;;;;5000302;28;20069;-65
2020/12/30 11:08:28;;;;;;;3.58;1.77;;;6.50;58.90;;;;;;5004249;28;20381;-65
2020/12/30 11:10:57;;;;;;;5.20;1.88;;;6.40;59.90;;;;;;5003861;28;20061;-65
2020/12/30 11:13:22;;;;;;;7.55;2.00;;;6.40;60.70;;;;;;5005411;28;20046;-68
2020/12/30 11:15:48;;;;;;;4.65;1.80;;;6.40;61.10;;;;;;5005498;28;20053;-65
2020/12/30 11:18:13;;;;;;;2.83;1.63;;;6.40;61.30;;;;;;5004132;28;20034;-64
2020/12/30 11:20:39;;;;;;;5.43;1.70;;;6.40;60.70;;;;;;5003909;28;20046;-64
2020/12/30 11:23:04;;;;;;;3.80;2.00;;;6.40;61.90;;;;;;5005144;28;20054;-64
2020/12/30 11:25:30;;;;;;;3.35;1.75;;;6.40;61.10;;;;;;5006222;28;20045;-65
2020/12/30 11:27:56;;;;;;;5.90;2.08;;;6.40;60.80;;;;;;5005252;28;20046;-64
2020/12/30 11:30:21;;;;;;;6.05;2.13;;;6.50;61.80;;;;;;5003806;28;20054;-64
2020/12/30 11:32:47;;;;;;;5.53;1.73;;;6.50;60.80;;;;;;5003643;28;20038;-65
2020/12/30 11:35:12;;;;;;;3.45;1.92;;;6.50;62.50;;;;;;5003721;28;20038;-65
2020/12/30 11:37:38;;;;;;;3.47;1.95;;;6.60;62.40;;;;;;5004556;28;20034;-64
2020/12/30 11:40:04;;;;;;;4.70;1.90;;;6.60;62.10;;;;;;4990368;28;20023;-65
2020/12/30 11:42:30;;;;;;;4.22;1.90;;;6.60;60.70;;;;;;5003138;28;20077;-64
2020/12/30 11:44:55;;;;;;;3.65;1.88;;;6.60;60.30;;;;;;5004289;28;20249;-65
2020/12/30 11:47:26;;;;;;;3.78;1.90;;;6.60;60.40;;;;;;4987214;28;20030;-65
2020/12/30 11:49:51;;;;;;;4.47;2.08;;;6.60;60.60;;;;;;5003488;28;20034;-65
2020/12/30 11:52:17;;;;;;;5.28;1.88;;;6.70;60.80;;;;;;5006384;28;20098;-65
2020/12/30 11:54:43;;;;;;;7.65;2.30;;;6.60;60.90;;;;;;4987098;28;20038;-64
2020/12/30 11:57:08;;;;;;;5.05;1.90;;;6.70;61.10;;;;;;5004132;28;20049;-65
2020/12/30 11:59:34;;;;;;;3.30;1.92;;;6.80;61.10;;;;;;5004357;28;20034;-64
2020/12/30 12:01:59;;;;;;;5.35;1.90;;;6.80;60.80;;;;;;5003161;28;20042;-65
2020/12/30 12:04:25;;;;;;;5.03;2.20;;;6.80;60.40;;;;;;5004410;28;20321;-64
2020/12/30 12:06:51;;;;;;;5.97;2.10;;;6.90;59.80;;;;;;5005992;28;20039;-64
2020/12/30 12:09:17;;;;;;;3.60;1.95;;;6.80;59.40;;;;;;5004304;28;20272;-65
2020/12/30 12:11:42;;;;;;;3.28;1.98;;;6.90;59.20;;;;;;5002727;28;20042;-65
2020/12/30 12:14:08;;;;;;;4.10;2.08;;;6.90;60.40;;;;;;5002629;28;20047;-65
2020/12/30 12:16:34;;;;;;;5.32;2.63;;;6.90;59.80;;;;;;5005551;28;20341;-67
2020/12/30 12:18:59;;;;;;;7.82;2.25;;;6.90;61.40;;;;;;5005651;28;20269;-65
2020/12/30 12:21:25;;;;;;;4.22;2.20;;;6.90;62.90;;;;;;4986189;28;20229;-65
2020/12/30 12:23:50;;;;;;;7.18;2.22;;;6.90;61.10;;;;;;5002716;28;20356;-65
2020/12/30 12:26:23;;;;;;;4.43;2.03;;;6.90;62.30;;;;;;5002696;28;20093;-64
2020/12/30 12:28:49;;;;;;;6.65;2.13;;;6.90;62.30;;;;;;5002312;28;20042;-65
2020/12/30 12:31:17;;;;;;;6.30;2.40;;;6.90;61.70;;;;;;5006996;28;20037;-65
2020/12/30 12:33:43;;;;;;;4.43;1.95;;;6.80;62.30;;;;;;5002661;28;20039;-64
2020/12/30 12:36:10;;;;;;;9.13;1.95;;;6.90;60.60;;;;;;5002711;28;20035;-64
2020/12/30 12:38:35;;;;;;;4.13;1.90;;;7.00;60.50;;;;;;5003573;28;20038;-64
2020/12/30 12:41:01;;;;;;;5.18;1.60;;;7.00;60.20;;;;;;5003601;28;20030;-65
2020/12/30 12:43:26;;;;;;;3.95;1.80;;;7.10;60.50;;;;;;5005112;28;20220;-65
2020/12/30 12:45:52;;;;;;;4.03;1.75;;;7.10;59.70;;;;;;5004331;28;20363;-64
2020/12/30 12:48:17;;;;;;;3.83;1.70;;;7.10;59.50;;;;;;5003694;28;20038;-65
2020/12/30 12:50:43;;;;;;;3.90;1.92;;;7.10;59.70;;;;;;5003538;28;20039;-65
2020/12/30 12:53:08;;;;;;;6.05;1.77;;;7.20;58.00;;;;;;5002115;28;20098;-65
2020/12/30 12:55:34;;;;;;;4.68;1.90;;;7.10;59.10;;;;;;5002924;28;20034;-68
2020/12/30 12:58:00;;;;;;;3.72;1.73;;;7.20;59.30;;;;;;5005474;28;20027;-65